Time;durP1;ratioP1;P1;durP2;ratioP2;P2;SDS_P1;SDS_P2;PMS_P1;PMS_P2;Temp;Humidity;BMP_temperature;BMP_pressure;BME280_temperature;BME280_humidity;BME280_pressure;Samples;Min_cycle;Max_cycle;Signal;HPM_P1;HPM_P2
2021/12/07 00:18:53;;;;;;;3.90;3.60;;;5.80;99.90;;;;;;5089530;27;20122;-84
2021/12/07 00:21:21;;;;;;;4.32;3.72;;;5.70;99.90;;;;;;5090908;28;20047;-81
2021/12/07 00:28:28;;;;;;;4.40;4.00;;;5.70;99.90;;;;;;5088122;27;20430;-81
2021/12/07 15:59:13;;;;;;;5.68;5.13;;;5.60;99.90;;;;;;5131952;27;19911;-84
2021/12/07 16:01:42;;;;;;;5.93;4.82;;;4.30;99.90;;;;;;5109251;28;20036;-86
2021/12/07 16:27:36;;;;;;;5.90;5.28;;;4.40;99.90;;;;;;5086225;27;20380;-87
2021/12/07 18:46:05;;;;;;;5.95;5.35;;;4.30;99.90;;;;;;5136936;27;20568;-87
2021/12/07 19:06:50;;;;;;;6.82;5.60;;;4.30;99.90;;;;;;5090003;28;20323;-83
2021/12/07 19:27:12;;;;;;;5.78;4.97;;;4.70;99.90;;;;;;5091380;27;20383;-89
2021/12/07 19:59:26;;;;;;;7.15;5.63;;;4.50;99.90;;;;;;5550766;22;15078136;-76
2021/12/07 20:01:58;;;;;;;5.10;4.60;;;4.60;99.90;;;;;;6222050;23;20028;-78
2021/12/07 20:04:30;;;;;;;5.75;4.93;;;4.50;99.90;;;;;;6222445;23;20015;-77
2021/12/07 20:06:59;;;;;;;5.88;5.22;;;4.50;99.90;;;;;;6195458;23;20055;-78
2021/12/07 20:09:26;;;;;;;19.20;11.20;;;4.60;99.90;;;;;;6172828;23;20116;-69
2021/12/07 20:11:54;;;;;;;5.88;5.03;;;4.70;99.90;;;;;;6191339;23;20017;-70
2021/12/07 20:14:26;;;;;;;5.38;4.70;;;4.60;99.90;;;;;;6190081;23;20015;-69
2021/12/07 20:17:08;;;;;;;7.22;5.25;;;4.50;99.90;;;;;;6189607;23;20330;-69
2021/12/07 20:19:36;;;;;;;5.32;4.75;;;4.50;99.90;;;;;;6189941;23;20019;-70
2021/12/07 20:22:06;;;;;;;5.28;4.78;;;4.60;99.90;;;;;;6191292;23;20703;-69
2021/12/07 20:24:34;;;;;;;6.47;5.40;;;4.60;99.90;;;;;;6165030;23;20020;-69
2021/12/07 20:27:02;;;;;;;6.20;5.20;;;4.50;99.90;;;;;;6191329;23;20041;-67
2021/12/07 20:29:31;;;;;;;6.20;5.18;;;4.60;99.90;;;;;;6213695;23;20083;-68
2021/12/07 20:32:02;;;;;;;6.18;5.45;;;4.70;99.90;;;;;;6220989;23;20059;-67
2021/12/07 20:34:31;;;;;;;6.28;4.90;;;4.70;99.90;;;;;;6217429;23;20024;-65
2021/12/07 20:37:00;;;;;;;5.65;5.10;;;4.70;99.90;;;;;;6217773;23;20337;-67
2021/12/07 20:39:28;;;;;;;6.07;5.30;;;4.60;99.90;;;;;;6188293;23;20091;-69
2021/12/07 20:41:56;;;;;;;6.93;5.07;;;4.70;99.90;;;;;;6218062;23;20024;-68
2021/12/07 20:44:25;;;;;;;5.90;5.10;;;4.80;99.90;;;;;;6192665;23;20016;-68
2021/12/07 20:46:52;;;;;;;5.90;5.30;;;4.70;99.90;;;;;;6193288;23;20334;-69
2021/12/07 20:49:21;;;;;;;6.40;5.38;;;4.80;99.90;;;;;;6215224;23;20046;-69
2021/12/07 20:51:51;;;;;;;6.85;4.95;;;4.80;99.90;;;;;;6215282;23;20036;-67
2021/12/07 20:54:19;;;;;;;7.30;5.53;;;4.70;99.90;;;;;;6215825;23;20128;-69
2021/12/07 20:56:50;;;;;;;5.68;4.82;;;4.80;99.90;;;;;;6221203;23;20012;-67
2021/12/07 20:59:18;;;;;;;6.25;5.30;;;4.70;99.90;;;;;;6215465;23;20638;-70
2021/12/07 21:01:45;;;;;;;6.32;5.03;;;4.70;99.90;;;;;;6211433;23;20013;-71
2021/12/07 21:04:14;;;;;;;6.50;5.50;;;4.90;99.90;;;;;;6212948;23;20013;-70
2021/12/07 21:06:49;;;;;;;6.28;5.10;;;4.80;99.90;;;;;;6212703;23;20047;-69
2021/12/07 21:09:20;;;;;;;5.82;5.07;;;4.70;99.90;;;;;;6212362;23;20029;-66
2021/12/07 21:12:09;;;;;;;5.85;5.00;;;4.80;99.90;;;;;;6212139;23;20013;-70
2021/12/07 21:14:37;;;;;;;7.57;5.00;;;4.60;99.90;;;;;;6214223;23;20044;-71
2021/12/07 21:17:06;;;;;;;5.30;4.80;;;4.70;99.90;;;;;;6214323;23;20080;-67
2021/12/07 21:19:34;;;;;;;6.03;5.18;;;4.80;99.90;;;;;;6187378;23;20047;-70
2021/12/07 21:22:02;;;;;;;5.05;4.53;;;4.70;99.90;;;;;;6187975;23;20059;-69
2021/12/07 21:24:29;;;;;;;6.20;5.18;;;4.70;99.90;;;;;;6212756;23;20016;-67
2021/12/07 21:26:57;;;;;;;5.38;4.85;;;4.80;99.90;;;;;;6185473;23;20028;-68
2021/12/07 21:29:25;;;;;;;7.05;5.30;;;5.00;99.90;;;;;;6212215;23;20350;-69
2021/12/07 21:31:57;;;;;;;5.22;4.72;;;4.80;99.90;;;;;;6160576;23;20378;-72
2021/12/07 21:34:25;;;;;;;6.25;5.15;;;4.90;99.90;;;;;;6212273;23;20391;-68
2021/12/07 21:36:53;;;;;;;5.82;5.25;;;4.70;99.90;;;;;;6212420;23;20092;-73
2021/12/07 21:39:22;;;;;;;8.27;5.90;;;4.80;99.90;;;;;;6212843;23;20017;-74
2021/12/07 21:41:53;;;;;;;8.10;5.22;;;4.90;99.90;;;;;;6213885;23;20088;-73
2021/12/07 21:44:24;;;;;;;6.88;5.20;;;4.90;99.90;;;;;;6214065;23;20014;-68
2021/12/07 21:46:52;;;;;;;5.95;5.22;;;4.90;99.90;;;;;;6187135;23;20071;-69
2021/12/07 21:49:19;;;;;;;5.93;5.15;;;4.90;99.90;;;;;;6186076;23;20039;-71
2021/12/07 21:51:51;;;;;;;7.03;5.25;;;4.80;99.90;;;;;;6185530;23;20021;-71
2021/12/07 21:54:19;;;;;;;7.20;5.55;;;4.90;99.90;;;;;;6161018;23;20165;-71
2021/12/07 21:56:48;;;;;;;7.03;5.60;;;5.10;99.90;;;;;;6185232;23;20400;-70
2021/12/07 21:59:16;;;;;;;6.22;4.85;;;4.90;99.90;;;;;;6185666;23;20028;-71
2021/12/07 22:01:44;;;;;;;6.25;4.93;;;5.00;99.90;;;;;;6162264;23;20016;-68
2021/12/07 22:04:13;;;;;;;5.50;4.70;;;4.90;99.90;;;;;;6213976;23;20036;-67
2021/12/07 22:06:41;;;;;;;6.35;5.00;;;4.90;99.90;;;;;;6213441;23;20013;-72
2021/12/07 22:09:17;;;;;;;6.78;4.90;;;4.90;99.90;;;;;;6213760;23;20103;-72
2021/12/07 22:11:52;;;;;;;10.98;7.47;;;4.90;99.90;;;;;;6212056;23;20083;-75
2021/12/07 22:14:28;;;;;;;8.20;5.63;;;5.00;99.90;;;;;;6184146;23;20016;-71
2021/12/07 22:16:55;;;;;;;5.68;5.07;;;5.00;99.90;;;;;;6214041;23;20318;-67
2021/12/07 22:19:28;;;;;;;5.43;4.93;;;5.00;99.90;;;;;;6214049;23;20333;-67
2021/12/07 22:21:58;;;;;;;5.70;4.57;;;4.90;99.90;;;;;;6213806;23;20501;-72
2021/12/07 22:24:26;;;;;;;6.18;5.15;;;5.00;99.90;;;;;;6211775;23;20500;-72
2021/12/07 22:26:55;;;;;;;5.35;4.85;;;5.10;99.90;;;;;;6213512;23;20067;-72
2021/12/07 22:29:23;;;;;;;6.90;5.55;;;5.00;99.90;;;;;;6187535;23;20086;-71
2021/12/07 22:31:51;;;;;;;6.60;5.00;;;5.00;99.90;;;;;;6161981;23;20040;-70
2021/12/07 22:34:19;;;;;;;6.30;5.10;;;5.00;99.90;;;;;;6185948;23;20024;-71
2021/12/07 22:36:49;;;;;;;7.18;5.18;;;5.20;99.90;;;;;;6185889;23;20016;-67
2021/12/07 22:39:19;;;;;;;6.63;5.22;;;5.20;99.90;;;;;;6163064;23;20036;-69
2021/12/07 22:41:47;;;;;;;6.20;5.20;;;5.00;99.90;;;;;;6187019;23;20586;-66
2021/12/07 22:44:14;;;;;;;5.68;5.07;;;5.00;99.90;;;;;;6160583;23;20026;-68
2021/12/07 22:46:46;;;;;;;6.22;5.13;;;5.10;99.90;;;;;;6213430;23;20079;-68
2021/12/07 22:49:14;;;;;;;6.07;5.05;;;5.00;99.90;;;;;;6186886;23;20338;-69
2021/12/07 22:51:42;;;;;;;6.30;5.20;;;5.00;99.90;;;;;;6162179;23;20023;-70
2021/12/07 22:54:09;;;;;;;6.85;5.30;;;5.00;99.90;;;;;;6185428;23;20105;-69
2021/12/07 22:56:37;;;;;;;6.32;5.00;;;5.20;99.90;;;;;;6213581;23;20027;-69
2021/12/07 22:59:05;;;;;;;6.05;4.93;;;5.20;99.90;;;;;;6187179;23;20016;-68
2021/12/07 23:01:32;;;;;;;7.65;5.47;;;5.10;99.90;;;;;;6186932;23;20023;-67
2021/12/07 23:03:59;;;;;;;6.53;5.50;;;5.20;99.90;;;;;;6213788;23;20016;-69
2021/12/07 23:06:27;;;;;;;6.75;5.47;;;5.10;99.90;;;;;;6186914;23;20058;-68
2021/12/07 23:08:54;;;;;;;6.22;5.20;;;5.10;99.90;;;;;;6213853;23;20381;-68
2021/12/07 23:11:21;;;;;;;5.95;5.18;;;5.00;99.90;;;;;;6212120;23;20047;-67
2021/12/07 23:13:52;;;;;;;8.50;5.55;;;5.00;99.90;;;;;;6213658;23;20016;-70
2021/12/07 23:16:19;;;;;;;7.28;5.78;;;5.20;99.90;;;;;;6213363;23;20399;-70
2021/12/07 23:18:47;;;;;;;8.18;5.90;;;5.30;99.90;;;;;;6186780;23;20020;-68
2021/12/07 23:21:24;;;;;;;6.93;5.50;;;5.10;99.90;;;;;;6213397;23;20013;-67
2021/12/07 23:23:59;;;;;;;8.25;5.80;;;5.30;99.90;;;;;;6213539;23;20013;-71
2021/12/07 23:26:28;;;;;;;7.22;5.70;;;5.10;99.90;;;;;;6213437;23;20082;-70
2021/12/07 23:28:56;;;;;;;6.85;5.55;;;5.10;99.90;;;;;;6213307;23;20036;-68
2021/12/07 23:31:23;;;;;;;7.07;5.65;;;5.20;99.90;;;;;;6187323;23;20035;-68
2021/12/07 23:33:51;;;;;;;5.57;4.97;;;5.30;99.90;;;;;;6213791;23;20087;-68
2021/12/07 23:36:20;;;;;;;6.10;5.15;;;5.20;99.90;;;;;;6213367;23;20012;-68
2021/12/07 23:38:54;;;;;;;7.00;5.32;;;5.20;99.90;;;;;;6213708;23;20087;-69
2021/12/07 23:41:22;;;;;;;9.55;5.18;;;5.30;99.90;;;;;;6212984;23;20043;-68
2021/12/07 23:43:51;;;;;;;6.35;5.60;;;5.10;99.90;;;;;;6213501;23;20023;-67
2021/12/07 23:46:19;;;;;;;5.50;4.88;;;5.20;99.90;;;;;;6186912;23;20034;-71
2021/12/07 23:48:48;;;;;;;7.63;5.35;;;5.00;99.90;;;;;;6213685;23;20028;-69
2021/12/07 23:51:16;;;;;;;5.70;5.13;;;5.10;99.90;;;;;;6186274;23;20397;-70
2021/12/07 23:53:43;;;;;;;6.57;5.60;;;4.80;99.90;;;;;;6186982;23;20043;-68
2021/12/07 23:56:11;;;;;;;6.75;5.30;;;5.00;99.90;;;;;;6186686;23;20038;-73
2021/12/07 23:58:39;;;;;;;6.30;5.57;;;5.10;99.90;;;;;;6213173;23;20039;-71
